Time;durP1;ratioP1;P1;durP2;ratioP2;P2;SDS_P1;SDS_P2;PMS_P1;PMS_P2;Temp;Humidity;BMP_temperature;BMP_pressure;BME280_temperature;BME280_humidity;BME280_pressure;Samples;Min_cycle;Max_cycle;Signal;HPM_P1;HPM_P2
2021/03/11 00:20:00;;;;;;;139.77;54.10;;;-2.80;99.90;;;;;;6229523;22;20377;-96
2021/03/11 00:23:17;;;;;;;128.30;50.17;;;-2.70;99.90;;;;;;6189703;23;20384;-96
2021/03/11 00:26:00;;;;;;;123.32;51.25;;;-2.80;99.90;;;;;;6179290;23;20436;-94
2021/03/11 00:28:46;;;;;;;130.90;53.25;;;-2.70;99.90;;;;;;6100482;23;20380;-95
2021/03/11 00:31:14;;;;;;;131.52;51.55;;;-2.60;99.90;;;;;;6138717;22;20410;-95
2021/03/11 00:34:01;;;;;;;424.30;57.05;;;-2.50;99.90;;;;;;6215145;23;20378;-96
2021/03/11 00:36:47;;;;;;;301.30;57.78;;;-2.50;99.90;;;;;;6235113;23;20462;-95
2021/03/11 00:39:30;;;;;;;301.13;59.33;;;-2.50;99.90;;;;;;6236190;23;20427;-95
2021/03/11 00:42:17;;;;;;;215.48;60.75;;;-2.50;99.90;;;;;;6216908;23;20393;-93
2021/03/11 00:44:52;;;;;;;262.20;59.92;;;-2.40;99.90;;;;;;6237771;23;20402;-96
2021/03/11 00:47:36;;;;;;;177.47;57.40;;;-2.30;99.90;;;;;;6235427;23;20398;-96
2021/03/11 00:50:21;;;;;;;146.35;56.50;;;-2.30;99.90;;;;;;6238216;22;20497;-94
2021/03/11 00:53:04;;;;;;;172.25;56.67;;;-2.20;99.90;;;;;;6245885;22;20405;-94
2021/03/11 00:55:59;;;;;;;145.02;54.03;;;-2.10;99.90;;;;;;6237789;23;20374;-94
2021/03/11 00:59:04;;;;;;;128.25;52.35;;;-2.10;99.90;;;;;;6240201;23;20473;-95
2021/03/11 01:01:57;;;;;;;128.40;52.47;;;-2.00;99.90;;;;;;6235707;23;20385;-96
2021/03/11 01:07:47;;;;;;;307.33;54.25;;;-1.90;99.90;;;;;;6253458;22;20373;-96
2021/03/11 01:10:21;;;;;;;138.48;52.85;;;-1.90;99.90;;;;;;6215585;23;20405;-96
2021/03/11 01:13:02;;;;;;;144.25;53.85;;;-2.00;99.90;;;;;;6227081;23;20374;-96
2021/03/11 01:16:01;;;;;;;139.82;53.20;;;-1.90;99.90;;;;;;6237027;23;20831;-96
2021/03/11 01:19:05;;;;;;;265.77;49.77;;;-1.90;99.90;;;;;;6201431;23;20386;-93
2021/03/11 01:22:13;;;;;;;285.50;63.80;;;-2.10;99.90;;;;;;6135970;23;20412;-94
2021/03/11 01:25:00;;;;;;;175.10;59.10;;;-2.00;99.90;;;;;;6092875;23;20470;-96
2021/03/11 01:44:07;;;;;;;;;;;;;;;;;;;;;
2021/03/11 01:47:53;;;;;;;195.27;56.25;;;-1.50;99.90;;;;;;6261016;23;20458;-96
2021/03/11 01:51:47;;;;;;;186.13;57.22;;;-1.40;99.90;;;;;;6056023;23;20441;-96
2021/03/11 01:58:51;;;;;;;157.95;57.22;;;-1.40;99.90;;;;;;5972985;23;20408;-96
2021/03/11 02:02:16;;;;;;;151.53;54.73;;;-1.30;99.90;;;;;;5923979;24;20429;-95
2021/03/11 02:05:42;;;;;;;136.40;52.05;;;-1.20;99.90;;;;;;5893968;24;20418;-95
2021/03/11 02:08:59;;;;;;;143.32;53.63;;;-1.20;99.90;;;;;;5897429;24;20416;-95
2021/03/11 02:12:34;;;;;;;133.27;52.00;;;-1.30;99.90;;;;;;5884717;24;20420;-96
2021/03/11 02:16:21;;;;;;;145.60;52.55;;;-1.10;99.90;;;;;;5860146;24;20488;-96
2021/03/11 02:23:53;;;;;;;139.05;54.65;;;-1.10;99.90;;;;;;5941686;24;20456;-95
2021/03/11 06:30:32;;;;;;;18.07;11.13;;;1.30;92.40;;;;;;6220590;22;20386;-96
2021/03/11 06:42:07;;;;;;;19.98;11.52;;;1.70;90.70;;;;;;6254422;23;20456;-96
2021/03/11 06:47:48;;;;;;;85.10;34.20;;;1.90;90.50;;;;;;6254038;22;20394;-96
2021/03/11 06:50:55;;;;;;;44.47;22.00;;;2.10;88.00;;;;;;6017124;23;20398;-96
2021/03/11 06:57:42;;;;;;;68.53;30.30;;;1.90;92.10;;;;;;5896901;24;20407;-95
2021/03/11 07:01:05;;;;;;;38.72;18.10;;;1.80;84.90;;;;;;5916008;24;20404;-96
2021/03/11 07:21:14;;;;;;;29.08;17.33;;;1.90;91.00;;;;;;5034700;28;20842;-96
2021/03/11 07:48:35;;;;;;;17.52;10.88;;;3.00;81.80;;;;;;5112684;23;20494;-96
2021/03/11 07:51:15;;;;;;;19.05;12.40;;;3.00;80.40;;;;;;5077082;23;20769;-96
2021/03/11 08:03:46;;;;;;;22.23;13.82;;;3.70;75.80;;;;;;5342913;23;20463;-96
2021/03/11 08:06:43;;;;;;;21.90;14.23;;;3.80;79.10;;;;;;4996791;28;20541;-96
2021/03/11 08:20:26;;;;;;;18.75;12.65;;;4.30;79.20;;;;;;5815436;22;20402;-95
2021/03/11 08:22:54;;;;;;;18.93;11.90;;;4.20;77.90;;;;;;5001687;28;20456;-94
2021/03/11 08:26:06;;;;;;;20.65;12.38;;;4.10;78.00;;;;;;5003461;28;20421;-96
2021/03/11 13:44:14;;;;;;;2.40;1.30;;;9.10;67.60;;;;;;2385948;23;20710;-95
2021/03/11 13:46:42;;;;;;;1.52;1.02;;;9.30;64.80;;;;;;4989097;28;20465;-96
2021/03/11 13:49:10;;;;;;;1.80;1.00;;;9.40;63.70;;;;;;4989428;28;20422;-96
2021/03/11 13:51:39;;;;;;;2.97;0.90;;;9.50;62.00;;;;;;4985238;28;20460;-96
2021/03/11 13:54:08;;;;;;;1.00;0.80;;;9.70;60.30;;;;;;4988667;28;20585;-96
2021/03/11 13:56:41;;;;;;;2.30;0.80;;;9.80;61.20;;;;;;4984782;28;20426;-96
2021/03/11 13:59:27;;;;;;;3.75;0.90;;;10.10;62.30;;;;;;5008530;28;20466;-96
2021/03/11 14:02:09;;;;;;;1.80;0.97;;;10.50;58.00;;;;;;4976290;28;20509;-96
2021/03/11 14:04:37;;;;;;;2.10;0.70;;;10.80;56.60;;;;;;4984581;28;20451;-96
2021/03/11 14:07:14;;;;;;;3.35;1.70;;;11.10;57.20;;;;;;4988553;28;20458;-96
2021/03/11 14:09:41;;;;;;;2.50;1.55;;;11.30;57.70;;;;;;4990899;28;20438;-96
2021/03/11 14:12:23;;;;;;;2.47;1.48;;;11.80;54.80;;;;;;4994339;28;20415;-96
2021/03/11 14:15:09;;;;;;;2.45;1.05;;;12.00;55.00;;;;;;4991211;28;20450;-96
2021/03/11 14:17:58;;;;;;;2.45;1.02;;;12.20;53.80;;;;;;4997159;28;20465;-96
2021/03/11 14:23:51;;;;;;;2.33;1.20;;;12.10;53.70;;;;;;5052058;28;20509;-96
2021/03/11 14:26:59;;;;;;;3.75;1.40;;;12.20;54.80;;;;;;5055179;28;20421;-96
2021/03/11 14:29:50;;;;;;;2.78;1.60;;;12.00;55.10;;;;;;5034852;28;20409;-96
2021/03/11 14:36:42;;;;;;;5.00;2.30;;;11.10;58.00;;;;;;5092764;23;20428;-96
2021/03/11 14:39:26;;;;;;;9.55;2.42;;;10.60;61.80;;;;;;5015855;28;20397;-96
2021/03/11 14:42:19;;;;;;;3.47;1.98;;;10.30;62.30;;;;;;4998820;28;20449;-96
2021/03/11 14:48:50;;;;;;;5.00;2.75;;;10.10;63.70;;;;;;4927030;29;20416;-96
2021/03/11 14:51:54;;;;;;;5.70;2.65;;;10.20;65.40;;;;;;4992823;28;20462;-96
2021/03/11 14:54:33;;;;;;;9.35;3.50;;;10.30;64.80;;;;;;5087015;23;20455;-96
2021/03/11 14:57:13;;;;;;;7.00;3.28;;;10.30;65.70;;;;;;5033717;28;20921;-96
2021/03/11 14:59:47;;;;;;;5.57;3.53;;;10.40;64.40;;;;;;5032060;28;20442;-96
2021/03/11 15:02:28;;;;;;;5.45;3.63;;;10.40;64.20;;;;;;5014161;28;20446;-96
2021/03/11 16:23:05;;;;;;;11.93;5.85;;;5.90;96.40;;;;;;720848;23;20776;-96
2021/03/11 16:26:05;;;;;;;11.52;6.43;;;6.00;96.10;;;;;;3763778;23;20700;-94
2021/03/11 16:38:29;;;;;;;13.75;6.90;;;5.60;97.00;;;;;;5288262;23;21636;31
2021/03/11 17:41:08;;;;;;;7.45;3.72;;;6.60;98.00;;;;;;5014450;23;21498;-94
2021/03/11 17:44:06;;;;;;;6.35;3.35;;;7.20;97.30;;;;;;5011129;28;20434;-96
2021/03/11 17:47:14;;;;;;;7.83;3.73;;;7.30;97.00;;;;;;5011732;28;20454;-95
2021/03/11 17:53:16;;;;;;;7.57;3.95;;;7.20;98.60;;;;;;2517572;23;20760;-96
2021/03/11 17:56:12;;;;;;;5.15;2.97;;;7.20;99.40;;;;;;5556881;23;20407;-96
2021/03/11 18:01:54;;;;;;;5.55;2.97;;;7.10;99.90;;;;;;4928793;29;20828;-95
2021/03/11 18:04:21;;;;;;;6.07;2.78;;;7.30;99.90;;;;;;4916890;29;20464;-96
2021/03/11 18:07:05;;;;;;;4.28;2.40;;;7.40;99.90;;;;;;4925581;29;20476;-96
2021/03/11 18:09:37;;;;;;;4.00;2.42;;;7.50;99.60;;;;;;4915376;29;20504;-95
2021/03/11 18:12:08;;;;;;;3.58;2.08;;;7.60;99.30;;;;;;5003094;23;20437;-95
2021/03/11 18:14:41;;;;;;;5.45;2.63;;;7.70;99.30;;;;;;5005511;28;20486;-96
2021/03/11 18:17:26;;;;;;;5.93;3.15;;;7.60;99.50;;;;;;5028599;28;20423;-96
2021/03/11 18:20:07;;;;;;;3.63;2.28;;;7.50;99.90;;;;;;4962910;28;20448;-96
2021/03/11 18:22:47;;;;;;;5.35;2.42;;;7.50;99.80;;;;;;5024938;28;20485;-96
2021/03/11 18:25:30;;;;;;;5.45;2.35;;;7.60;99.60;;;;;;4988650;28;20464;-95
2021/03/11 18:28:14;;;;;;;4.25;2.83;;;7.60;99.60;;;;;;4931253;29;20457;-94
2021/03/11 18:30:44;;;;;;;4.23;2.43;;;7.50;99.90;;;;;;4943193;29;20434;-96
2021/03/11 18:33:15;;;;;;;4.80;2.55;;;7.50;99.80;;;;;;4942915;29;20454;-96
2021/03/11 18:35:49;;;;;;;4.33;2.57;;;7.60;99.90;;;;;;4942873;29;20426;-94
2021/03/11 18:38:23;;;;;;;6.13;2.50;;;7.50;99.90;;;;;;4925273;29;20437;-95
2021/03/11 18:40:54;;;;;;;5.80;2.97;;;7.70;99.50;;;;;;4924858;29;20422;-95
2021/03/11 18:43:24;;;;;;;3.83;2.53;;;7.70;99.70;;;;;;4945344;29;20434;-95
2021/03/11 18:45:52;;;;;;;5.83;3.40;;;7.70;99.90;;;;;;4950597;28;20420;-95
2021/03/11 18:48:24;;;;;;;4.38;2.80;;;7.60;99.90;;;;;;4984286;28;20503;-94
2021/03/11 18:50:51;;;;;;;5.63;2.97;;;7.60;99.90;;;;;;4985616;28;20439;-96
2021/03/11 18:53:37;;;;;;;7.82;3.15;;;7.60;99.90;;;;;;5000555;28;20413;-95
2021/03/11 18:56:05;;;;;;;6.07;3.05;;;7.50;99.90;;;;;;5001596;28;20424;-95
2021/03/11 18:58:41;;;;;;;8.55;3.53;;;7.40;99.90;;;;;;4985841;28;20452;-96
2021/03/11 19:01:10;;;;;;;8.20;3.80;;;7.40;99.90;;;;;;5000052;28;20451;-95
2021/03/11 19:03:43;;;;;;;6.53;3.70;;;7.30;99.90;;;;;;5000061;28;20515;-95
2021/03/11 19:06:10;;;;;;;11.68;5.10;;;7.30;99.90;;;;;;4981517;28;20776;-96
2021/03/11 19:08:42;;;;;;;7.60;4.28;;;7.20;99.90;;;;;;4999057;28;20429;-94
2021/03/11 19:11:11;;;;;;;10.18;5.30;;;7.20;99.90;;;;;;4998210;28;20450;-95
2021/03/11 19:13:39;;;;;;;9.07;4.38;;;7.20;99.90;;;;;;5002425;28;20442;-94
2021/03/11 19:16:10;;;;;;;8.52;4.13;;;7.10;99.90;;;;;;4998758;28;20416;-93
2021/03/11 19:18:40;;;;;;;10.00;4.55;;;7.00;99.90;;;;;;4997937;28;20416;-94
2021/03/11 19:21:10;;;;;;;7.78;3.88;;;6.80;99.90;;;;;;4997963;28;20927;-96
2021/03/11 19:23:36;;;;;;;11.23;4.53;;;6.70;99.90;;;;;;4999297;28;20444;-95
2021/03/11 19:26:03;;;;;;;9.70;4.20;;;6.60;99.90;;;;;;4997516;28;20467;-96
2021/03/11 19:28:31;;;;;;;17.00;6.32;;;6.50;99.90;;;;;;4997731;28;20429;-95
2021/03/11 19:30:58;;;;;;;13.35;6.03;;;6.40;99.90;;;;;;4998183;28;20427;-96
2021/03/11 19:33:32;;;;;;;9.68;4.93;;;6.30;99.90;;;;;;4996899;28;20425;-94
2021/03/11 19:36:00;;;;;;;8.10;4.35;;;6.20;99.90;;;;;;4996403;28;20425;-93
2021/03/11 19:38:27;;;;;;;8.88;4.97;;;6.20;99.90;;;;;;4997786;28;20425;-94
2021/03/11 19:40:53;;;;;;;14.25;6.90;;;6.20;99.90;;;;;;4997447;28;20451;-95
2021/03/11 19:43:25;;;;;;;8.88;4.55;;;6.10;99.90;;;;;;4996575;28;20440;-95
2021/03/11 19:45:53;;;;;;;9.00;3.78;;;6.10;99.90;;;;;;4997024;28;20486;-94
2021/03/11 19:48:20;;;;;;;5.60;2.70;;;6.20;99.90;;;;;;4996921;28;20455;-94
2021/03/11 19:50:47;;;;;;;6.80;3.30;;;6.10;99.90;;;;;;4997153;28;20420;-94
2021/03/11 19:53:14;;;;;;;7.63;3.70;;;6.20;99.90;;;;;;4997588;28;20425;-95
2021/03/11 19:55:44;;;;;;;3.47;1.83;;;6.10;99.90;;;;;;5000446;28;20447;-95
2021/03/11 19:58:15;;;;;;;4.47;1.95;;;6.10;99.90;;;;;;4999644;28;20416;-96
2021/03/11 20:00:46;;;;;;;1.60;1.20;;;6.10;99.90;;;;;;5013817;28;20742;-94
2021/03/11 20:03:15;;;;;;;0.80;0.70;;;6.10;99.90;;;;;;4997811;28;20846;-94
2021/03/11 20:05:46;;;;;;;1.20;1.10;;;6.00;99.90;;;;;;4999276;28;20441;-93
2021/03/11 20:08:32;;;;;;;2.10;1.40;;;6.00;99.90;;;;;;4986166;28;20421;-93
2021/03/11 20:11:00;;;;;;;1.40;0.70;;;5.90;99.90;;;;;;4999607;28;20483;-95
2021/03/11 20:13:27;;;;;;;0.80;0.80;;;5.90;99.90;;;;;;4998204;28;20438;-95
2021/03/11 20:16:09;;;;;;;;;;;;;;;;;;;;;
2021/03/11 20:18:38;;;;;;;0.80;0.70;;;5.80;99.90;;;;;;4998299;28;20988;-95
2021/03/11 20:21:05;;;;;;;0.80;0.70;;;5.80;99.90;;;;;;4999799;28;20453;-95
2021/03/11 20:23:31;;;;;;;0.88;0.55;;;5.80;99.90;;;;;;4998356;28;20445;-95
2021/03/11 20:26:01;;;;;;;0.50;0.50;;;5.80;99.90;;;;;;4997414;28;20422;-95
2021/03/11 20:28:29;;;;;;;0.63;0.57;;;5.80;99.90;;;;;;4997328;28;20454;-93
2021/03/11 20:30:56;;;;;;;1.15;0.60;;;5.80;99.90;;;;;;4998587;28;20432;-96
2021/03/11 20:33:22;;;;;;;2.22;0.75;;;5.70;99.90;;;;;;4996732;28;20501;-95
2021/03/11 20:35:51;;;;;;;1.73;0.88;;;5.80;99.90;;;;;;4995896;28;20480;-94
2021/03/11 20:38:38;;;;;;;2.67;1.30;;;5.80;99.90;;;;;;4998239;28;20502;-95
2021/03/11 20:41:04;;;;;;;3.15;1.38;;;5.70;99.90;;;;;;5001206;28;20422;-96
2021/03/11 20:43:33;;;;;;;1.80;1.07;;;5.70;99.90;;;;;;4999119;28;20453;-96
2021/03/11 20:46:00;;;;;;;4.53;1.48;;;5.70;99.90;;;;;;4996797;28;20453;-94
2021/03/11 20:48:27;;;;;;;1.58;0.68;;;5.80;99.90;;;;;;4997499;28;20427;-95
2021/03/11 20:51:00;;;;;;;2.88;1.42;;;5.80;99.90;;;;;;4997045;28;20498;-94
2021/03/11 20:53:29;;;;;;;2.30;1.40;;;5.80;99.90;;;;;;4996636;28;20504;-95
2021/03/11 20:55:56;;;;;;;4.60;1.83;;;5.80;99.90;;;;;;4996237;28;20942;-94
2021/03/11 20:58:23;;;;;;;1.63;1.00;;;5.80;99.90;;;;;;4996289;28;20427;-95
2021/03/11 21:00:54;;;;;;;2.40;1.10;;;5.80;99.90;;;;;;4997218;28;20437;-94
2021/03/11 21:03:22;;;;;;;2.80;1.30;;;5.80;99.90;;;;;;5012589;23;20451;-94
2021/03/11 21:05:49;;;;;;;2.50;1.08;;;5.80;99.90;;;;;;5006495;28;20496;-93
2021/03/11 21:08:16;;;;;;;4.50;1.48;;;5.70;99.90;;;;;;5001333;28;20431;-92
2021/03/11 21:10:43;;;;;;;3.40;1.85;;;5.70;99.90;;;;;;5001670;28;20421;-94
2021/03/11 21:13:10;;;;;;;0.93;0.80;;;5.80;99.90;;;;;;5001518;28;20431;-93
2021/03/11 21:15:37;;;;;;;2.97;1.08;;;5.80;99.90;;;;;;4999893;28;20432;-93
2021/03/11 21:18:05;;;;;;;1.60;0.90;;;5.70;99.90;;;;;;4998879;28;20433;-94
2021/03/11 21:20:32;;;;;;;0.97;0.80;;;5.70;99.90;;;;;;4999790;28;20453;-95
2021/03/11 21:23:02;;;;;;;6.47;1.10;;;5.60;99.90;;;;;;5000617;28;20535;-95
2021/03/11 21:25:30;;;;;;;2.28;0.80;;;5.60;99.90;;;;;;5000759;28;20427;-93
2021/03/11 21:27:57;;;;;;;2.20;1.17;;;5.50;99.90;;;;;;4999296;28;20421;-93
2021/03/11 21:30:25;;;;;;;2.13;1.05;;;5.40;99.90;;;;;;5001006;28;20429;-94
2021/03/11 21:32:57;;;;;;;2.25;0.90;;;5.30;99.90;;;;;;4999191;28;20420;-93
2021/03/11 21:35:25;;;;;;;2.20;0.98;;;5.30;99.90;;;;;;4997961;28;20440;-93
2021/03/11 21:37:52;;;;;;;0.90;0.80;;;5.30;99.90;;;;;;4999175;28;20420;-92
2021/03/11 21:40:23;;;;;;;2.17;1.13;;;5.20;99.90;;;;;;4999658;28;20424;-94
2021/03/11 21:42:51;;;;;;;1.83;1.00;;;5.20;99.90;;;;;;4999077;28;20437;-92
2021/03/11 21:45:19;;;;;;;1.27;0.80;;;5.10;99.90;;;;;;4999767;28;20420;-93
2021/03/11 21:47:46;;;;;;;0.85;0.52;;;5.10;99.90;;;;;;4999275;28;20435;-93
2021/03/11 21:50:15;;;;;;;2.25;0.88;;;5.10;99.90;;;;;;4999247;28;20452;-92
2021/03/11 21:52:42;;;;;;;1.65;0.70;;;5.10;99.90;;;;;;5000563;28;20420;-93
2021/03/11 21:55:11;;;;;;;1.90;0.82;;;5.10;99.90;;;;;;4998951;28;20468;-93
2021/03/11 21:57:38;;;;;;;1.80;0.70;;;5.10;99.90;;;;;;4999650;28;20435;-92
2021/03/11 22:00:16;;;;;;;4.30;0.70;;;5.10;99.90;;;;;;4999922;28;20573;-92
2021/03/11 22:02:46;;;;;;;2.30;0.55;;;5.10;99.90;;;;;;4998555;28;20436;-92
2021/03/11 22:05:15;;;;;;;2.60;0.87;;;5.00;99.90;;;;;;4999036;28;20433;-93
2021/03/11 22:07:43;;;;;;;17.02;1.63;;;5.00;99.90;;;;;;5000229;28;20946;-93
2021/03/11 22:10:18;;;;;;;42.58;3.60;;;5.00;99.90;;;;;;5000777;28;20425;-93
2021/03/11 22:13:06;;;;;;;123.37;6.73;;;5.00;99.90;;;;;;5003007;28;20440;-92
2021/03/11 22:15:37;;;;;;;329.35;11.80;;;4.90;99.90;;;;;;4998376;28;20768;-94
2021/03/11 22:18:04;;;;;;;146.90;6.32;;;5.00;99.90;;;;;;4998703;28;20493;-92
2021/03/11 22:20:31;;;;;;;93.20;4.68;;;5.00;99.90;;;;;;4998232;28;20804;-92
2021/03/11 22:22:58;;;;;;;127.87;5.57;;;5.00;99.90;;;;;;4998212;28;20443;-91
2021/03/11 22:25:24;;;;;;;11.48;1.27;;;5.00;99.90;;;;;;4999062;28;20432;-94
2021/03/11 22:27:51;;;;;;;8.40;1.60;;;5.00;99.90;;;;;;4998556;28;20424;-95
2021/03/11 22:30:24;;;;;;;35.10;2.40;;;5.00;99.90;;;;;;4999172;28;20433;-93
2021/03/11 22:32:51;;;;;;;195.45;8.27;;;5.00;99.90;;;;;;4998376;28;20420;-94
2021/03/11 22:35:19;;;;;;;29.40;1.95;;;5.00;99.90;;;;;;4997807;28;20463;-93
2021/03/11 22:37:47;;;;;;;178.40;9.20;;;5.00;99.90;;;;;;4997885;28;20459;-94
2021/03/11 22:40:25;;;;;;;6.35;0.80;;;5.00;99.90;;;;;;5000379;28;20421;-92
2021/03/11 22:42:52;;;;;;;117.15;5.65;;;5.00;99.90;;;;;;4997508;28;20445;-94
2021/03/11 22:45:19;;;;;;;91.43;4.80;;;5.10;99.90;;;;;;4998550;28;20927;-93
2021/03/11 22:47:46;;;;;;;10.53;1.27;;;5.00;99.90;;;;;;4998502;28;20421;-94
2021/03/11 22:50:13;;;;;;;77.38;4.50;;;5.10;99.90;;;;;;4998430;28;20452;-94
2021/03/11 22:52:40;;;;;;;28.20;2.17;;;5.10;99.90;;;;;;4997481;28;20492;-93
2021/03/11 22:55:07;;;;;;;3.00;0.93;;;5.10;99.90;;;;;;4997152;28;20420;-93
2021/03/11 22:57:34;;;;;;;8.95;1.15;;;5.10;99.90;;;;;;4997565;28;20424;-93
2021/03/11 23:00:04;;;;;;;111.57;6.22;;;5.10;99.90;;;;;;5001385;28;20431;-94
2021/03/11 23:02:30;;;;;;;368.77;12.98;;;5.10;99.90;;;;;;4998251;28;20449;-93
2021/03/11 23:04:57;;;;;;;300.30;12.63;;;5.10;99.90;;;;;;4998434;28;20436;-96
2021/03/11 23:07:24;;;;;;;17.75;1.75;;;5.10;99.90;;;;;;4997782;28;20416;-94
2021/03/11 23:09:50;;;;;;;18.38;1.85;;;5.10;99.90;;;;;;4998088;28;20504;-93
2021/03/11 23:12:17;;;;;;;126.93;6.68;;;5.10;99.90;;;;;;4997400;28;20953;-95
2021/03/11 23:14:44;;;;;;;142.23;6.40;;;5.10;99.90;;;;;;4997983;28;20500;-94
2021/03/11 23:17:10;;;;;;;58.85;2.70;;;5.10;99.90;;;;;;4997272;28;20417;-95
2021/03/11 23:19:40;;;;;;;7.25;0.93;;;5.10;99.90;;;;;;4998171;28;20421;-94
2021/03/11 23:22:12;;;;;;;3.13;0.90;;;5.00;99.90;;;;;;4998124;28;20462;-94
2021/03/11 23:24:43;;;;;;;0.82;0.70;;;5.10;99.90;;;;;;4998807;28;20463;-93
2021/03/11 23:27:13;;;;;;;1.10;0.80;;;5.10;99.90;;;;;;4998582;28;20420;-93
2021/03/11 23:29:39;;;;;;;0.90;0.70;;;5.20;99.90;;;;;;4998193;28;20424;-93
2021/03/11 23:32:07;;;;;;;1.67;1.30;;;5.20;99.90;;;;;;4998513;28;20420;-93
2021/03/11 23:34:34;;;;;;;2.00;1.50;;;5.20;99.90;;;;;;4998481;28;20429;-93
2021/03/11 23:37:01;;;;;;;1.10;0.90;;;5.20;99.90;;;;;;4998053;28;20424;-94
2021/03/11 23:39:27;;;;;;;3.25;2.53;;;5.20;99.90;;;;;;4998283;28;20531;-94
2021/03/11 23:41:53;;;;;;;3.67;2.20;;;5.30;99.90;;;;;;4998478;28;20427;-93
2021/03/11 23:44:20;;;;;;;5.53;3.38;;;5.30;99.90;;;;;;4998208;28;20436;-93
2021/03/11 23:46:47;;;;;;;3.40;2.88;;;5.30;99.90;;;;;;5001765;28;20500;-93
2021/03/11 23:49:13;;;;;;;4.97;3.42;;;5.30;99.90;;;;;;5001185;28;20420;-94
2021/03/11 23:51:40;;;;;;;1.85;1.35;;;5.20;99.90;;;;;;5001513;28;20428;-92
2021/03/11 23:54:07;;;;;;;1.58;0.80;;;5.10;99.90;;;;;;5001026;28;20431;-95
2021/03/11 23:56:34;;;;;;;1.87;1.50;;;5.20;99.90;;;;;;5001561;28;20435;-95
2021/03/11 23:59:01;;;;;;;3.42;1.80;;;5.10;99.90;;;;;;5001158;28;20507;-94
